Time;durP1;ratioP1;P1;durP2;ratioP2;P2;SDS_P1;SDS_P2;PMS_P1;PMS_P2;Temp;Humidity;BMP_temperature;BMP_pressure;BME280_temperature;BME280_humidity;BME280_pressure;Samples;Min_cycle;Max_cycle;Signal;HPM_P1;HPM_P2
2023/03/16 00:00:44;;;;;;;8.82;3.80;;;2.30;99.90;;;;;;4992278;28;20125;-51
2023/03/16 00:03:30;;;;;;;5.85;3.95;;;2.30;99.90;;;;;;4999399;28;20040;-51
2023/03/16 00:06:16;;;;;;;9.80;3.80;;;2.30;99.90;;;;;;5015130;28;20018;-55
2023/03/16 00:09:03;;;;;;;6.55;3.85;;;2.40;99.90;;;;;;5014357;28;20536;-55
2023/03/16 00:11:49;;;;;;;7.60;4.22;;;2.40;99.90;;;;;;5016565;28;20079;-52
2023/03/16 00:14:35;;;;;;;10.43;4.00;;;2.30;99.90;;;;;;5031144;28;20036;-50
2023/03/16 00:17:21;;;;;;;9.32;4.10;;;2.30;99.90;;;;;;5016468;28;20026;-52
2023/03/16 00:20:08;;;;;;;9.32;4.20;;;2.40;99.90;;;;;;5034926;28;20023;-56
2023/03/16 00:22:54;;;;;;;9.18;4.25;;;2.40;99.90;;;;;;5030040;28;20030;-52
2023/03/16 00:25:40;;;;;;;6.88;3.75;;;2.40;99.90;;;;;;5031396;28;20029;-49
2023/03/16 00:28:27;;;;;;;7.95;4.35;;;2.40;99.90;;;;;;5030659;28;20045;-57
2023/03/16 00:31:14;;;;;;;7.95;4.22;;;2.40;99.90;;;;;;5016204;28;20239;-55
2023/03/16 00:34:01;;;;;;;7.78;4.80;;;2.40;99.90;;;;;;5030706;28;20030;-52
2023/03/16 00:36:47;;;;;;;6.43;3.85;;;2.40;99.90;;;;;;5028435;28;20398;-56
2023/03/16 00:39:34;;;;;;;7.80;3.72;;;2.40;99.90;;;;;;4977803;28;20026;-54
2023/03/16 00:42:26;;;;;;;6.55;3.70;;;2.30;99.90;;;;;;4991985;28;20451;-56
2023/03/16 00:45:12;;;;;;;8.80;4.63;;;2.30;99.90;;;;;;4979084;28;20018;-58
2023/03/16 00:47:57;;;;;;;7.15;4.13;;;2.30;99.90;;;;;;4992527;28;20062;-55
2023/03/16 00:50:43;;;;;;;7.40;4.15;;;2.20;99.90;;;;;;5008906;28;20128;-55
2023/03/16 00:53:31;;;;;;;9.02;3.80;;;2.20;99.90;;;;;;5010012;28;20041;-57
2023/03/16 00:56:17;;;;;;;6.70;4.28;;;2.20;99.90;;;;;;5012082;28;20037;-53
2023/03/16 00:59:04;;;;;;;9.48;3.80;;;2.20;99.90;;;;;;5011624;28;20081;-55
2023/03/16 01:01:54;;;;;;;5.93;3.58;;;2.20;99.90;;;;;;5011973;28;20041;-57
2023/03/16 01:04:40;;;;;;;8.25;4.00;;;2.20;99.90;;;;;;5013427;28;20023;-55
2023/03/16 01:07:26;;;;;;;5.82;3.65;;;2.30;99.90;;;;;;5006321;28;20026;-58
2023/03/16 01:10:12;;;;;;;9.32;4.05;;;2.20;99.90;;;;;;4998175;28;20098;-57
2023/03/16 01:12:58;;;;;;;8.18;4.00;;;2.20;99.90;;;;;;5025921;28;20026;-55
2023/03/16 01:15:44;;;;;;;7.55;4.97;;;2.20;99.90;;;;;;5027204;28;20026;-55
2023/03/16 01:18:34;;;;;;;8.38;4.45;;;2.10;99.90;;;;;;5012174;28;20037;-55
2023/03/16 01:21:20;;;;;;;5.95;3.90;;;2.10;99.90;;;;;;5023722;28;20022;-57
2023/03/16 01:24:07;;;;;;;7.22;4.07;;;2.10;99.90;;;;;;5009134;28;20026;-55
2023/03/16 01:26:53;;;;;;;8.65;4.25;;;2.10;99.90;;;;;;5020277;28;20071;-56
2023/03/16 01:29:39;;;;;;;7.50;4.20;;;2.10;99.90;;;;;;5019901;28;20041;-58
2023/03/16 01:32:25;;;;;;;8.45;3.92;;;2.10;99.90;;;;;;5018721;28;20026;-59
2023/03/16 01:35:11;;;;;;;9.35;3.95;;;2.10;99.90;;;;;;5020104;28;20446;-57
2023/03/16 01:37:57;;;;;;;7.45;3.92;;;2.00;99.90;;;;;;5005762;28;20050;-58
2023/03/16 01:40:43;;;;;;;9.48;3.92;;;2.00;99.90;;;;;;5013896;28;20032;-54
2023/03/16 01:43:31;;;;;;;7.68;3.90;;;2.00;99.90;;;;;;4999870;28;20499;-58
2023/03/16 01:46:24;;;;;;;6.57;3.53;;;1.90;99.90;;;;;;5014109;28;20109;-56
2023/03/16 01:49:12;;;;;;;6.60;3.80;;;2.00;99.90;;;;;;5013702;28;20095;-60
2023/03/16 01:52:27;;;;;;;8.90;4.53;;;2.00;99.90;;;;;;5014141;28;20383;-59
2023/03/16 01:55:13;;;;;;;8.00;4.10;;;2.00;99.90;;;;;;5014865;28;20570;-58
2023/03/16 01:58:00;;;;;;;9.18;4.20;;;2.00;99.90;;;;;;4999279;28;20025;-60
2023/03/16 02:00:46;;;;;;;11.65;4.70;;;1.90;99.90;;;;;;5012615;28;20499;-62
2023/03/16 02:03:33;;;;;;;6.45;3.75;;;1.80;99.90;;;;;;5013391;28;20058;-58
2023/03/16 02:06:22;;;;;;;7.72;3.97;;;1.80;99.90;;;;;;5013318;28;20025;-57
2023/03/16 02:09:09;;;;;;;5.85;4.15;;;1.80;99.90;;;;;;5013930;28;20022;-60
2023/03/16 02:11:55;;;;;;;8.98;3.90;;;1.80;99.90;;;;;;5013674;28;20080;-60
2023/03/16 02:14:41;;;;;;;6.25;3.85;;;1.70;99.90;;;;;;5013745;28;20754;-60
2023/03/16 02:17:30;;;;;;;7.72;4.07;;;1.80;99.90;;;;;;4998289;28;20510;-58
2023/03/16 02:20:41;;;;;;;10.90;4.30;;;1.80;99.90;;;;;;5013603;28;20029;-52
2023/03/16 02:23:27;;;;;;;7.13;3.83;;;1.80;99.90;;;;;;5012930;28;20449;-53
2023/03/16 02:26:46;;;;;;;9.75;3.83;;;1.70;99.90;;;;;;5012297;28;20030;-50
2023/03/16 02:29:44;;;;;;;6.65;4.03;;;1.70;99.90;;;;;;5011090;28;20594;-53
2023/03/16 02:32:32;;;;;;;9.05;3.85;;;1.70;99.90;;;;;;5012812;28;20022;-50
2023/03/16 02:35:18;;;;;;;10.65;4.35;;;1.60;99.90;;;;;;4997545;28;20081;-52
2023/03/16 02:38:04;;;;;;;9.50;4.15;;;1.70;99.90;;;;;;5012632;28;20080;-57
2023/03/16 02:41:01;;;;;;;9.10;4.35;;;1.60;99.90;;;;;;4999025;28;20105;-55
2023/03/16 02:44:15;;;;;;;7.53;4.40;;;1.60;99.90;;;;;;5013423;28;20033;-56
2023/03/16 02:47:10;;;;;;;8.13;4.60;;;1.60;99.90;;;;;;5013144;28;20030;-55
2023/03/16 02:49:56;;;;;;;9.05;4.88;;;1.60;99.90;;;;;;5012606;28;20442;-56
2023/03/16 02:52:42;;;;;;;8.02;4.78;;;1.60;99.90;;;;;;5012786;28;20391;-53
2023/03/16 02:55:28;;;;;;;8.85;4.72;;;1.60;99.90;;;;;;4997861;28;20030;-54
2023/03/16 02:58:14;;;;;;;8.43;4.30;;;1.60;99.90;;;;;;5012300;28;20053;-55
2023/03/16 03:01:00;;;;;;;7.95;4.72;;;1.60;99.90;;;;;;4998715;28;20038;-53
2023/03/16 03:03:46;;;;;;;9.07;4.50;;;1.50;99.90;;;;;;5013582;28;20117;-54
2023/03/16 03:06:33;;;;;;;11.43;4.57;;;1.50;99.90;;;;;;5012418;28;20503;-54
2023/03/16 03:09:19;;;;;;;8.07;4.53;;;1.50;99.90;;;;;;5013082;28;20034;-55
2023/03/16 03:12:05;;;;;;;7.35;4.28;;;1.50;99.90;;;;;;4998382;28;20080;-53
2023/03/16 03:14:51;;;;;;;10.68;3.90;;;1.50;99.90;;;;;;4999606;28;20021;-56
2023/03/16 03:17:37;;;;;;;10.63;4.80;;;1.50;99.90;;;;;;5012296;28;20081;-57
2023/03/16 03:20:23;;;;;;;7.63;4.75;;;1.40;99.90;;;;;;5012307;28;20076;-54
2023/03/16 03:23:09;;;;;;;7.00;4.43;;;1.50;99.90;;;;;;5012393;28;20086;-53
2023/03/16 03:25:59;;;;;;;9.18;4.32;;;1.50;99.90;;;;;;5012084;28;20065;-52
2023/03/16 03:28:45;;;;;;;10.35;4.70;;;1.50;99.90;;;;;;5012595;28;20034;-52
2023/03/16 03:31:31;;;;;;;9.88;4.40;;;1.50;99.90;;;;;;5010723;28;20033;-54
2023/03/16 03:34:17;;;;;;;8.48;4.32;;;1.40;99.90;;;;;;5011312;28;20026;-54
2023/03/16 03:37:03;;;;;;;11.18;4.68;;;1.50;99.90;;;;;;5011407;28;20026;-56
2023/03/16 03:39:49;;;;;;;7.88;4.50;;;1.40;99.90;;;;;;5011925;28;20080;-52
2023/03/16 03:42:35;;;;;;;8.63;4.40;;;1.40;99.90;;;;;;4997058;28;20036;-58
2023/03/16 03:45:21;;;;;;;8.23;4.15;;;1.40;99.90;;;;;;4997201;28;20022;-50
2023/03/16 03:48:07;;;;;;;8.52;4.68;;;1.40;99.90;;;;;;5011443;28;20394;-54
2023/03/16 03:50:53;;;;;;;8.30;4.95;;;1.30;99.90;;;;;;5011229;28;20061;-55
2023/03/16 03:53:39;;;;;;;8.75;5.20;;;1.30;99.90;;;;;;5011671;28;20088;-57
2023/03/16 03:56:25;;;;;;;8.27;4.47;;;1.40;99.90;;;;;;5011209;28;20502;-55
2023/03/16 03:59:11;;;;;;;8.13;4.70;;;1.40;99.90;;;;;;5010872;28;20474;-55
2023/03/16 04:01:57;;;;;;;9.75;5.40;;;1.40;99.90;;;;;;5010415;28;20037;-56
2023/03/16 04:04:43;;;;;;;9.30;5.25;;;1.40;99.90;;;;;;5011307;28;20030;-56
2023/03/16 04:07:29;;;;;;;12.40;5.20;;;1.40;99.90;;;;;;5011684;28;20450;-56
2023/03/16 04:10:15;;;;;;;10.75;5.50;;;1.30;99.90;;;;;;5011233;28;20072;-55
2023/03/16 04:13:01;;;;;;;14.07;7.60;;;1.40;99.90;;;;;;5011413;28;20026;-55
2023/03/16 04:15:47;;;;;;;8.98;5.15;;;1.40;99.90;;;;;;5011336;28;20076;-55
2023/03/16 04:18:37;;;;;;;9.10;4.70;;;1.30;99.90;;;;;;5011084;28;20018;-52
2023/03/16 04:21:23;;;;;;;12.25;5.25;;;1.30;99.90;;;;;;5011327;28;20027;-56
2023/03/16 04:24:09;;;;;;;10.88;4.93;;;1.30;99.90;;;;;;5015375;28;20525;-54
2023/03/16 04:26:55;;;;;;;12.07;5.97;;;1.30;99.90;;;;;;5015326;28;20056;-53
2023/03/16 04:29:42;;;;;;;12.32;5.25;;;1.30;99.90;;;;;;5015808;28;20030;-57
2023/03/16 04:32:28;;;;;;;9.88;4.63;;;1.40;99.90;;;;;;5016543;28;20069;-56
2023/03/16 04:35:16;;;;;;;8.43;4.82;;;1.40;99.90;;;;;;5014283;28;20054;-57
2023/03/16 04:38:02;;;;;;;8.38;4.72;;;1.40;99.90;;;;;;5016584;28;20112;-55
2023/03/16 04:40:48;;;;;;;6.97;4.57;;;1.40;99.90;;;;;;5017764;28;20426;-57
2023/03/16 04:43:35;;;;;;;11.20;5.43;;;1.30;99.90;;;;;;5016164;28;20513;-56
2023/03/16 04:46:22;;;;;;;8.52;5.80;;;1.30;99.90;;;;;;5016144;28;20029;-56
2023/03/16 04:49:09;;;;;;;8.45;6.10;;;1.30;99.90;;;;;;5015471;28;20030;-55
2023/03/16 04:51:54;;;;;;;7.82;5.80;;;1.30;99.90;;;;;;5014870;28;20029;-52
2023/03/16 04:54:40;;;;;;;38.95;21.17;;;1.30;99.90;;;;;;5014732;28;20049;-53
2023/03/16 04:57:26;;;;;;;54.92;23.50;;;1.20;99.90;;;;;;5000031;28;20168;-54
2023/03/16 05:00:18;;;;;;;14.40;7.85;;;1.20;99.90;;;;;;5014672;28;20152;-57
2023/03/16 05:03:04;;;;;;;10.30;5.50;;;1.20;99.90;;;;;;5014581;28;20778;-53
2023/03/16 05:05:50;;;;;;;9.20;5.45;;;1.00;99.90;;;;;;5014529;28;20040;-55
2023/03/16 05:08:36;;;;;;;10.93;5.55;;;1.00;99.90;;;;;;5014459;28;20034;-56
2023/03/16 05:11:22;;;;;;;9.63;5.43;;;1.00;99.90;;;;;;5014320;28;20042;-56
2023/03/16 05:14:08;;;;;;;10.27;5.28;;;1.00;99.90;;;;;;5014404;28;20116;-57
2023/03/16 05:16:54;;;;;;;8.95;5.95;;;1.00;99.90;;;;;;5013544;28;20561;-56
2023/03/16 05:19:41;;;;;;;11.25;5.75;;;1.00;99.90;;;;;;5014211;28;20030;-56
2023/03/16 05:22:27;;;;;;;13.25;5.72;;;1.00;99.90;;;;;;5014442;28;20073;-55
2023/03/16 05:25:14;;;;;;;11.50;5.88;;;1.10;99.90;;;;;;5014270;28;20033;-56
2023/03/16 05:28:00;;;;;;;13.18;6.68;;;1.00;99.90;;;;;;5000276;28;20508;-55
2023/03/16 05:30:46;;;;;;;13.77;6.43;;;1.00;99.90;;;;;;5016433;28;20032;-57
2023/03/16 05:33:32;;;;;;;11.95;5.88;;;1.00;99.90;;;;;;5013859;28;20043;-56
2023/03/16 05:36:19;;;;;;;13.30;6.03;;;1.00;99.90;;;;;;5014098;28;20057;-57
2023/03/16 05:39:07;;;;;;;12.82;6.50;;;1.00;99.90;;;;;;5014781;28;20026;-57
2023/03/16 05:41:53;;;;;;;12.45;6.65;;;1.00;99.90;;;;;;5014292;28;20026;-51
2023/03/16 05:44:39;;;;;;;15.05;6.95;;;1.00;99.90;;;;;;5014311;28;20402;-52
2023/03/16 05:47:25;;;;;;;10.40;6.90;;;1.00;99.90;;;;;;5014087;28;20387;-52
2023/03/16 05:50:13;;;;;;;10.70;7.60;;;0.90;99.90;;;;;;4999263;28;20498;-57
2023/03/16 05:52:59;;;;;;;11.77;7.30;;;0.80;99.90;;;;;;5014607;28;20022;-54
2023/03/16 05:55:53;;;;;;;14.55;7.70;;;0.60;99.90;;;;;;5013673;28;20026;-51
2023/03/16 05:58:41;;;;;;;14.25;8.48;;;0.70;99.90;;;;;;5014389;28;20548;-55
2023/03/16 06:01:27;;;;;;;12.02;7.40;;;0.70;99.90;;;;;;5014196;28;20056;-57
2023/03/16 06:04:13;;;;;;;10.60;7.57;;;0.80;99.90;;;;;;5014110;28;20080;-52
2023/03/16 06:06:59;;;;;;;11.38;7.32;;;0.80;99.90;;;;;;5013638;28;20101;-55
2023/03/16 06:09:45;;;;;;;12.35;7.18;;;0.90;99.90;;;;;;4998841;28;20113;-55
2023/03/16 06:12:31;;;;;;;10.38;6.93;;;1.00;99.90;;;;;;4999493;28;20034;-54
2023/03/16 06:15:17;;;;;;;14.43;7.65;;;1.10;99.90;;;;;;4998017;28;20033;-55
2023/03/16 06:18:03;;;;;;;12.82;7.72;;;1.10;99.90;;;;;;5013661;28;20026;-52
2023/03/16 06:20:49;;;;;;;22.67;9.75;;;1.20;99.90;;;;;;5013585;28;20030;-53
2023/03/16 06:23:35;;;;;;;16.38;9.05;;;1.20;99.90;;;;;;5013289;28;20085;-55
2023/03/16 06:26:21;;;;;;;19.17;9.32;;;1.20;99.90;;;;;;5012981;28;20040;-54
2023/03/16 06:29:07;;;;;;;13.13;7.88;;;1.30;99.90;;;;;;5012861;28;20018;-53
2023/03/16 06:31:53;;;;;;;14.18;7.50;;;1.40;99.90;;;;;;5012559;28;20125;-54
2023/03/16 06:34:40;;;;;;;10.60;6.72;;;1.40;99.90;;;;;;5012945;28;20704;-54
2023/03/16 06:37:27;;;;;;;11.93;7.18;;;1.50;99.90;;;;;;5012470;28;20034;-53
2023/03/16 06:40:13;;;;;;;12.50;7.00;;;1.60;99.90;;;;;;5013292;28;20030;-53
2023/03/16 06:43:00;;;;;;;15.50;7.30;;;1.60;99.90;;;;;;4998945;28;20494;-54
2023/03/16 06:45:46;;;;;;;12.63;7.65;;;1.60;99.90;;;;;;4998007;28;20034;-55
2023/03/16 06:48:32;;;;;;;12.95;8.00;;;1.70;99.90;;;;;;5013032;28;20034;-51
2023/03/16 06:51:18;;;;;;;14.98;8.25;;;1.90;99.90;;;;;;5012719;28;20054;-52
2023/03/16 06:54:04;;;;;;;15.60;8.38;;;1.80;99.90;;;;;;5012585;28;20025;-51
2023/03/16 06:56:51;;;;;;;15.35;8.60;;;1.90;99.90;;;;;;5012278;28;20033;-57
2023/03/16 06:59:37;;;;;;;12.90;8.55;;;1.90;99.90;;;;;;5012484;28;20407;-52
2023/03/16 07:02:23;;;;;;;12.65;8.32;;;2.00;99.90;;;;;;5012610;28;20080;-55
2023/03/16 07:05:12;;;;;;;13.35;7.57;;;2.10;99.90;;;;;;4998804;28;20030;-57
2023/03/16 07:07:58;;;;;;;14.95;7.35;;;2.20;99.90;;;;;;5011762;28;20049;-56
2023/03/16 07:10:44;;;;;;;18.13;9.88;;;2.30;99.90;;;;;;5013524;28;20037;-57
2023/03/16 07:13:29;;;;;;;19.35;9.07;;;2.40;99.90;;;;;;5011445;28;20036;-55
2023/03/16 07:16:15;;;;;;;19.15;8.23;;;2.50;99.90;;;;;;5011953;28;20100;-53
2023/03/16 07:19:01;;;;;;;18.00;8.88;;;2.60;99.90;;;;;;5012300;28;20482;-56
2023/03/16 07:21:48;;;;;;;17.33;8.57;;;2.50;99.90;;;;;;5012113;28;20482;-54
2023/03/16 07:24:34;;;;;;;18.08;8.05;;;2.60;99.90;;;;;;4997507;28;20022;-55
2023/03/16 07:27:22;;;;;;;12.13;7.40;;;2.70;99.90;;;;;;5012451;28;20080;-55
2023/03/16 07:30:13;;;;;;;14.38;7.80;;;2.80;99.90;;;;;;5011988;28;20026;-57
2023/03/16 07:32:58;;;;;;;18.42;8.82;;;2.90;99.90;;;;;;5012686;28;20507;-57
2023/03/16 07:35:44;;;;;;;28.48;18.63;;;2.80;99.90;;;;;;5012161;28;20084;-57
2023/03/16 07:38:32;;;;;;;15.73;10.05;;;2.70;99.90;;;;;;5011853;28;20018;-55
2023/03/16 07:41:18;;;;;;;12.75;7.97;;;2.80;99.90;;;;;;5010722;28;20509;-56
2023/03/16 07:44:04;;;;;;;15.77;7.63;;;2.90;99.90;;;;;;5010048;28;20100;-54
2023/03/16 07:46:50;;;;;;;10.43;6.18;;;3.00;99.90;;;;;;5010203;28;20033;-53
2023/03/16 07:49:36;;;;;;;15.07;6.10;;;3.00;99.90;;;;;;4997199;28;20033;-54
2023/03/16 07:52:23;;;;;;;11.43;6.10;;;3.00;99.90;;;;;;5005866;28;20034;-55
2023/03/16 07:55:09;;;;;;;11.52;5.80;;;3.10;99.90;;;;;;4992350;28;20072;-51
2023/03/16 07:57:55;;;;;;;16.08;7.43;;;3.10;99.90;;;;;;5008417;28;20052;-54
2023/03/16 08:00:41;;;;;;;12.20;7.65;;;3.20;99.90;;;;;;5005662;28;20513;-53
2023/03/16 08:03:28;;;;;;;10.32;5.80;;;3.30;99.90;;;;;;5011121;28;20034;-56
2023/03/16 08:06:14;;;;;;;11.07;6.05;;;3.30;99.90;;;;;;4996611;28;20052;-56
2023/03/16 08:09:01;;;;;;;13.40;6.85;;;3.40;99.90;;;;;;5010797;28;20022;-57
2023/03/16 08:11:47;;;;;;;13.35;6.05;;;3.50;99.90;;;;;;4996746;28;20079;-52
2023/03/16 08:14:33;;;;;;;10.55;5.53;;;3.70;99.90;;;;;;5011350;28;20114;-52
2023/03/16 08:17:20;;;;;;;9.25;5.32;;;3.90;99.90;;;;;;4997211;28;20018;-50
2023/03/16 08:20:09;;;;;;;8.90;5.13;;;3.90;99.90;;;;;;5009775;28;20026;-51
2023/03/16 08:22:55;;;;;;;10.05;6.07;;;4.00;99.90;;;;;;5011596;28;20036;-50
2023/03/16 08:25:41;;;;;;;11.63;5.53;;;4.20;99.90;;;;;;5007337;28;20022;-49
2023/03/16 08:28:28;;;;;;;10.90;5.88;;;4.30;99.90;;;;;;4990447;28;20035;-47
2023/03/16 08:31:14;;;;;;;10.90;5.93;;;4.40;99.90;;;;;;4994060;28;20035;-51
2023/03/16 08:34:01;;;;;;;10.43;5.47;;;4.50;99.90;;;;;;5010177;28;20025;-48
2023/03/16 08:36:47;;;;;;;17.48;5.93;;;4.60;99.90;;;;;;5010186;28;20498;-48
2023/03/16 08:39:34;;;;;;;18.73;4.72;;;4.70;99.90;;;;;;5011053;28;20061;-48
2023/03/16 08:42:21;;;;;;;13.05;4.88;;;4.90;99.90;;;;;;5010854;28;20041;-55
2023/03/16 08:45:11;;;;;;;8.68;4.43;;;4.90;99.60;;;;;;5011564;28;20414;-59
2023/03/16 08:47:57;;;;;;;10.68;5.70;;;5.00;99.80;;;;;;5011939;28;20030;-58
2023/03/16 08:50:43;;;;;;;9.77;4.78;;;5.00;99.50;;;;;;4996688;28;20022;-60
2023/03/16 08:53:29;;;;;;;14.63;6.82;;;5.10;99.50;;;;;;5011305;28;20583;-61
2023/03/16 08:56:15;;;;;;;13.15;7.47;;;5.00;99.50;;;;;;5010770;28;20505;-57
2023/03/16 08:59:02;;;;;;;16.52;6.03;;;5.00;99.50;;;;;;5010556;28;20626;-56
2023/03/16 09:01:48;;;;;;;9.70;5.50;;;5.20;99.30;;;;;;5011276;28;20508;-59
2023/03/16 09:04:34;;;;;;;9.32;4.80;;;5.20;99.40;;;;;;5009278;28;20026;-56
2023/03/16 09:07:20;;;;;;;13.00;6.88;;;5.40;98.90;;;;;;4995596;28;20030;-56
2023/03/16 09:10:07;;;;;;;12.70;5.80;;;5.40;98.60;;;;;;4985123;28;20100;-60
2023/03/16 09:12:53;;;;;;;8.50;4.18;;;5.50;98.40;;;;;;5013610;28;20022;-60
2023/03/16 09:15:39;;;;;;;9.77;4.95;;;5.60;98.20;;;;;;5000761;28;20022;-60
2023/03/16 09:18:26;;;;;;;10.25;4.90;;;5.50;97.90;;;;;;5014526;28;20181;-60
2023/03/16 09:21:12;;;;;;;9.77;3.95;;;5.60;97.90;;;;;;5014956;28;20030;-60
2023/03/16 09:23:59;;;;;;;12.07;4.60;;;5.70;97.70;;;;;;5014567;28;20030;-58
2023/03/16 09:26:45;;;;;;;16.30;5.93;;;5.80;97.00;;;;;;5014041;28;20033;-59
2023/03/16 09:29:31;;;;;;;11.88;4.95;;;5.90;96.50;;;;;;5015285;28;20037;-54
2023/03/16 09:32:17;;;;;;;11.77;5.03;;;6.10;96.10;;;;;;5013742;28;20107;-56
2023/03/16 09:35:05;;;;;;;9.73;4.47;;;5.90;96.20;;;;;;5013839;28;20061;-54
2023/03/16 09:37:51;;;;;;;8.57;4.35;;;5.90;95.60;;;;;;5013356;28;20021;-54
2023/03/16 09:40:40;;;;;;;10.57;5.15;;;5.90;94.60;;;;;;5013649;28;20042;-54
2023/03/16 09:43:52;;;;;;;12.70;5.65;;;6.00;94.80;;;;;;5013571;28;20045;-57
2023/03/16 09:46:44;;;;;;;11.90;5.10;;;6.00;94.50;;;;;;5013840;28;20044;-55
2023/03/16 09:49:51;;;;;;;10.18;4.60;;;6.20;94.60;;;;;;5014069;28;20440;-50
2023/03/16 09:53:15;;;;;;;9.35;4.07;;;6.40;94.20;;;;;;5013126;28;20084;-55
2023/03/16 09:56:12;;;;;;;9.55;4.05;;;6.40;93.50;;;;;;5008774;28;20072;-56
2023/03/16 09:58:58;;;;;;;12.85;4.30;;;6.40;92.00;;;;;;5012175;28;20486;-58
2023/03/16 10:02:03;;;;;;;15.60;4.85;;;6.50;92.30;;;;;;5013920;28;20465;-55
2023/03/16 10:05:13;;;;;;;8.13;3.78;;;6.60;92.50;;;;;;5013287;28;20067;-53
2023/03/16 10:08:18;;;;;;;10.73;3.95;;;6.70;92.20;;;;;;5011980;28;20029;-55
2023/03/16 10:11:22;;;;;;;5.25;3.60;;;6.70;92.10;;;;;;5013435;28;20033;-54
2023/03/16 10:14:17;;;;;;;8.68;4.70;;;6.80;92.00;;;;;;5013349;28;20022;-56
2023/03/16 10:17:07;;;;;;;7.53;3.50;;;6.80;92.00;;;;;;5011245;28;20034;-56
2023/03/16 10:19:58;;;;;;;7.28;4.30;;;7.10;97.60;;;;;;5011936;28;20029;-56
2023/03/16 10:22:47;;;;;;;10.77;4.32;;;7.80;97.80;;;;;;5013428;28;20029;-53
2023/03/16 10:25:48;;;;;;;10.32;4.47;;;8.00;95.40;;;;;;4993919;28;20487;-53
2023/03/16 10:28:36;;;;;;;10.15;3.78;;;8.20;91.60;;;;;;5007946;28;20025;-56
2023/03/16 10:31:23;;;;;;;7.60;4.35;;;8.10;90.80;;;;;;4993246;28;20380;-55
2023/03/16 10:34:09;;;;;;;8.90;3.83;;;8.10;90.40;;;;;;5004601;28;20500;-54
2023/03/16 10:36:55;;;;;;;8.32;4.07;;;8.00;90.20;;;;;;4985668;28;20391;-55
2023/03/16 10:39:44;;;;;;;10.57;5.05;;;7.90;90.40;;;;;;4998809;28;20491;-52
2023/03/16 10:42:30;;;;;;;10.38;4.30;;;7.80;90.70;;;;;;5011545;28;20465;-57
2023/03/16 10:45:26;;;;;;;8.43;4.10;;;7.80;91.10;;;;;;5011596;28;20021;-53
2023/03/16 10:48:20;;;;;;;9.93;4.18;;;7.70;91.00;;;;;;5012762;28;20105;-56
2023/03/16 10:51:11;;;;;;;16.75;4.95;;;7.50;91.00;;;;;;5013551;28;20091;-50
2023/03/16 10:54:13;;;;;;;10.15;5.10;;;7.50;91.00;;;;;;5025119;28;20048;-58
2023/03/16 11:04:44;;;;;;;13.25;4.10;;;8.40;94.40;;;;;;4945436;28;20025;-58
2023/03/16 11:07:32;;;;;;;14.90;4.53;;;8.60;92.60;;;;;;4998435;28;20022;-55
2023/03/16 11:10:34;;;;;;;9.60;4.80;;;8.40;92.10;;;;;;5012139;28;20026;-59
2023/03/16 11:13:20;;;;;;;11.55;4.75;;;8.50;92.70;;;;;;5012756;28;20022;-57
2023/03/16 11:16:24;;;;;;;12.05;4.70;;;8.60;91.80;;;;;;5010788;28;20022;-54
2023/03/16 11:19:17;;;;;;;9.00;4.32;;;8.50;90.80;;;;;;5013997;28;20022;-56
2023/03/16 11:22:13;;;;;;;10.73;4.38;;;8.30;91.20;;;;;;5011606;28;20033;-55
2023/03/16 11:25:05;;;;;;;8.85;4.10;;;8.50;92.70;;;;;;5008853;28;20030;-56
2023/03/16 11:27:59;;;;;;;7.63;3.90;;;8.50;90.30;;;;;;4991697;28;20030;-57
2023/03/16 11:31:03;;;;;;;11.50;3.70;;;8.60;91.70;;;;;;4996223;28;20026;-61
2023/03/16 11:33:53;;;;;;;6.85;3.78;;;8.70;89.30;;;;;;5006195;28;20033;-59
2023/03/16 11:36:49;;;;;;;7.75;3.75;;;8.40;91.20;;;;;;5011334;28;20018;-57
2023/03/16 11:39:47;;;;;;;9.93;3.35;;;8.50;87.30;;;;;;5011087;28;20030;-57
2023/03/16 11:42:38;;;;;;;11.07;3.30;;;8.20;85.80;;;;;;5010324;28;20076;-52
2023/03/16 11:45:32;;;;;;;8.27;3.08;;;7.90;83.50;;;;;;5010640;28;20041;-55
2023/03/16 11:48:21;;;;;;;7.68;3.33;;;7.90;82.40;;;;;;4991453;28;20073;-55
2023/03/16 11:51:20;;;;;;;8.30;3.53;;;8.00;82.30;;;;;;5003500;28;20081;-53
2023/03/16 11:54:24;;;;;;;9.23;3.17;;;8.00;81.10;;;;;;5011369;28;20109;-56
2023/03/16 11:57:57;;;;;;;7.43;3.53;;;8.10;80.60;;;;;;4992059;28;20138;-52
2023/03/16 12:00:52;;;;;;;4.03;3.08;;;8.30;80.00;;;;;;4975134;28;20125;-52
2023/03/16 12:04:08;;;;;;;7.67;3.23;;;8.40;80.50;;;;;;5011767;28;20029;-58
2023/03/16 12:07:28;;;;;;;6.38;3.38;;;8.40;80.80;;;;;;5022132;28;20281;-52
2023/03/16 12:10:22;;;;;;;4.75;3.13;;;8.40;81.10;;;;;;5027823;28;20037;-51
2023/03/16 12:14:19;;;;;;;5.85;3.50;;;8.50;80.90;;;;;;4997078;28;20022;-54
2023/03/16 12:17:14;;;;;;;9.17;5.03;;;8.50;79.70;;;;;;4893434;29;20067;-51
2023/03/16 12:20:06;;;;;;;;;;;8.30;76.00;;;;;;4999849;28;20023;-51
2023/03/16 12:23:01;;;;;;;7.72;3.10;;;8.20;76.30;;;;;;4997799;28;19917;-55
2023/03/16 12:25:49;;;;;;;8.95;3.45;;;8.30;77.00;;;;;;4992020;28;20109;-57
2023/03/16 12:28:36;;;;;;;5.65;2.95;;;8.20;78.50;;;;;;4997903;28;20030;-54
2023/03/16 12:31:40;;;;;;;6.97;3.25;;;8.30;78.10;;;;;;5008039;28;20038;-54
2023/03/16 12:34:31;;;;;;;8.00;3.30;;;8.50;77.10;;;;;;4997918;28;20655;-52
2023/03/16 12:37:36;;;;;;;7.50;3.17;;;8.40;76.20;;;;;;4993127;28;20133;-55
2023/03/16 12:40:25;;;;;;;6.43;3.00;;;8.50;77.40;;;;;;5007375;28;20022;-54
2023/03/16 12:43:21;;;;;;;11.13;6.45;;;8.60;76.90;;;;;;4992940;28;20053;-55
2023/03/16 12:46:13;;;;;;;;;;;8.80;76.00;;;;;;5000778;28;20088;-53
2023/03/16 12:49:03;;;;;;;6.07;3.00;;;8.80;75.80;;;;;;4996697;28;19909;-53
2023/03/16 12:52:00;;;;;;;5.63;3.45;;;8.90;76.20;;;;;;5009534;28;20025;-54
2023/03/16 12:54:51;;;;;;;6.65;3.47;;;8.90;76.00;;;;;;5013843;28;20399;-53
2023/03/16 12:57:40;;;;;;;5.35;2.80;;;8.90;76.50;;;;;;5014240;28;20049;-56
2023/03/16 13:00:39;;;;;;;7.97;3.22;;;8.80;77.30;;;;;;5014324;28;20072;-53
2023/03/16 13:03:26;;;;;;;9.38;3.10;;;9.00;77.80;;;;;;5012247;28;20044;-55
2023/03/16 13:06:22;;;;;;;15.75;6.35;;;9.20;78.00;;;;;;5010391;28;20069;-52
2023/03/16 13:09:12;;;;;;;13.32;3.85;;;9.40;77.90;;;;;;5015439;28;20068;-51
2023/03/16 13:11:58;;;;;;;7.65;3.60;;;9.60;77.80;;;;;;5013424;28;20030;-52
2023/03/16 13:14:44;;;;;;;8.85;3.67;;;9.70;76.80;;;;;;5012690;28;20062;-49
2023/03/16 13:17:32;;;;;;;10.35;3.50;;;9.50;76.80;;;;;;5013228;28;20022;-51
2023/03/16 13:20:28;;;;;;;13.35;3.95;;;9.60;76.60;;;;;;5015472;28;20034;-55
2023/03/16 13:23:22;;;;;;;6.63;3.10;;;9.60;76.30;;;;;;5015043;28;20049;-56
2023/03/16 13:26:15;;;;;;;9.88;3.13;;;9.70;74.60;;;;;;4993755;28;20455;-49
2023/03/16 13:29:26;;;;;;;7.47;3.58;;;9.80;74.10;;;;;;5002866;28;20026;-50
2023/03/16 13:32:17;;;;;;;6.28;3.25;;;10.20;73.20;;;;;;5014619;28;20057;-57
2023/03/16 13:35:08;;;;;;;6.72;3.00;;;10.30;73.40;;;;;;4999751;28;20025;-50
2023/03/16 13:38:04;;;;;;;5.90;2.88;;;10.70;72.40;;;;;;5013503;28;20052;-53
2023/03/16 13:40:54;;;;;;;7.10;2.90;;;10.70;71.60;;;;;;5013320;28;20030;-58
2023/03/16 13:43:43;;;;;;;13.57;3.70;;;11.00;73.50;;;;;;4980270;28;20031;-53
2023/03/16 13:46:29;;;;;;;6.60;3.20;;;11.10;76.90;;;;;;5007223;28;20042;-51
2023/03/16 13:49:17;;;;;;;7.57;3.70;;;11.30;75.20;;;;;;5011680;28;20037;-52
2023/03/16 13:52:04;;;;;;;8.75;3.83;;;11.50;73.10;;;;;;5014657;28;20042;-57
2023/03/16 13:54:51;;;;;;;4.22;2.80;;;11.50;77.60;;;;;;5013622;28;20026;-53
2023/03/16 13:57:40;;;;;;;10.82;3.70;;;11.80;80.20;;;;;;5013849;28;20022;-51
2023/03/16 14:00:33;;;;;;;10.85;3.72;;;11.90;72.30;;;;;;5012457;28;20106;-50
2023/03/16 14:03:21;;;;;;;11.32;4.55;;;11.40;73.10;;;;;;4994043;28;20026;-54
2023/03/16 14:06:25;;;;;;;9.48;4.25;;;11.30;72.20;;;;;;4991305;28;20394;-58
2023/03/16 14:09:16;;;;;;;6.95;3.72;;;11.00;72.90;;;;;;5023198;28;20370;-56
2023/03/16 14:12:03;;;;;;;10.32;3.80;;;11.00;79.20;;;;;;5013051;28;20037;-49
2023/03/16 14:14:53;;;;;;;7.20;3.38;;;11.20;73.20;;;;;;5013201;28;20438;-58
2023/03/16 14:17:41;;;;;;;12.68;3.33;;;11.50;77.70;;;;;;5012851;28;20026;-56
2023/03/16 14:20:29;;;;;;;8.65;4.10;;;11.60;69.60;;;;;;5012932;28;20018;-55
2023/03/16 14:23:30;;;;;;;7.32;3.35;;;11.80;70.80;;;;;;5019771;28;20486;-53
2023/03/16 14:26:17;;;;;;;5.60;3.20;;;12.00;73.80;;;;;;4994363;28;20042;-55
2023/03/16 14:29:23;;;;;;;9.75;3.42;;;12.40;73.20;;;;;;4997284;28;20065;-56
2023/03/16 14:32:25;;;;;;;6.13;3.17;;;12.50;69.20;;;;;;5011488;28;20109;-55
2023/03/16 14:35:14;;;;;;;9.35;7.63;;;12.70;67.00;;;;;;4984097;28;20033;-53
2023/03/16 14:38:19;;;;;;;5.40;3.17;;;12.50;66.70;;;;;;4992466;28;20027;-56
2023/03/16 14:41:22;;;;;;;8.00;3.03;;;12.40;67.30;;;;;;5011667;28;20037;-53
2023/03/16 14:44:29;;;;;;;3.88;3.00;;;11.90;66.80;;;;;;5012823;28;20026;-56
2023/03/16 14:47:24;;;;;;;5.18;3.17;;;11.70;66.50;;;;;;4997883;28;20022;-53
2023/03/16 14:50:20;;;;;;;;;;;12.00;68.80;;;;;;5011914;28;20037;-55
2023/03/16 14:53:08;;;;;;;9.82;5.72;;;12.50;66.60;;;;;;5014207;28;19996;-57
2023/03/16 14:55:58;;;;;;;4.95;2.97;;;12.50;66.50;;;;;;5011367;28;20120;-60
2023/03/16 14:58:44;;;;;;;3.55;2.65;;;11.90;65.50;;;;;;4997453;28;20065;-54